Flight Track Log - Related Links

Times and Time Zones

All times are in EDT time to prevent confusion due to time zone crossing. See the RPA3275 flight status page for this flight to view local times or setup timezone preferences in your user account.

Time Position Orientation Groundspeed Altitude Reporting Facility
EDT Latitude Longitude Course Direction KTS MPH feet Rate Location/Type
Sun 07:14:01 AM 42.7653 -73.8061 223° Southwest 145 167 1,200  Level Boston Center
Sun 07:15:08 AM 42.7897 -73.8603 302° West 211 243 3,500 2,149 Climbing Boston Center
Sun 07:16:00 AM 42.7333 -74.1972 270° West  Level FlightAware Approximate
Sun 07:16:15 AM 42.7822 -73.9478 263° West 231 266 6,000  Level Boston Center
Sun 07:17:00 AM 42.7211 -74.3245 236° Southwest  Level FlightAware Approximate
Sun 07:17:15 AM 42.7725 -74.0439 262° West 249 287 9,100  Level Boston Center
Sun 07:18:00 AM 42.6478 -74.4109 220° Southwest  Level FlightAware Approximate
Sun 07:18:15 AM 42.7606 -74.1539 262° West 262 302 11,100  Level Boston Center
Sun 07:19:00 AM 42.5733 -74.4959 223° Southwest  Level FlightAware Approximate
Sun 07:19:15 AM 42.7483 -74.2694 262° West 308 354 13,400  Level Boston Center
Sun 07:20:15 AM 42.6967 -74.3667 234° Southwest 307 353 15,200 2,000 Climbing Boston Center
Sun 07:21:15 AM 42.6244 -74.4464 219° Southwest 330 380 17,400 1,400 Climbing Boston Center
Sun 07:22:15 AM 42.5500 -74.5314 220° Southwest 345 397 18,000 300 Climbing Boston Center
Sun 07:23:15 AM 42.4775 -74.6133 220° Southwest 345 397 18,000  Level Boston Center
Sun 07:24:15 AM 42.4072 -74.6953 221° Southwest 345 397 18,000  Level Boston Center
Sun 07:25:56 AM 42.2911 -74.8328 221° Southwest 327 376 18,000  Level New York Center
Sun 07:26:53 AM 42.2175 -74.9150 220° Southwest 333 383 18,000  Level New York Center
Sun 07:27:54 AM 42.1461 -74.9889 218° Southwest 345 397 18,000  Level New York Center
Sun 07:28:55 AM 42.0561 -75.0611 211° Southwest 351 404 18,000  Level New York Center
Sun 07:29:55 AM 41.9767 -75.1286 212° Southwest 351 404 18,000  Level New York Center
Sun 07:30:56 AM 41.8931 -75.1928 210° Southwest 351 404 18,000 -496 Level New York Center
Sun 07:31:56 AM 41.8519 -75.2903 241° Southwest 332 382 17,000 -1,780 Descending New York Center
Sun 07:32:54 AM 41.8283 -75.4139 256° West 332 382 14,500 -2,542 Descending New York Center
Sun 07:33:54 AM 41.7983 -75.5453 253° West 338 389 12,000 -1,230 Descending New York Center
Sun 07:34:56 AM 41.7233 -75.5928 205° Southwest 294 338 12,000  Level New York Center
Sun 07:35:53 AM 41.6350 -75.6142 190° South 310 357 12,000  Level New York Center
Sun 07:36:57 AM 41.5553 -75.6306 189° South 326 375 12,000  Level New York Center
Sun 07:37:54 AM 41.4672 -75.6464 188° South 326 375 12,000  Level New York Center
Sun 07:38:54 AM 41.3789 -75.6675 190° South 326 375 12,000 -446 Level New York Center
Sun 07:39:55 AM 41.2928 -75.6861 189° South 326 375 11,100 -1,008 Descending New York Center
Sun 07:40:53 AM 41.1986 -75.6903 182° South 320 368 10,000 -555 Descending New York Center
Sun 07:41:54 AM 41.1133 -75.6897 180° South 310 357 10,000  Level New York Center
Sun 07:42:54 AM 41.0364 -75.6867 178° South 310 357 10,000  Level New York Center
Sun 07:43:55 AM 40.9417 -75.6606 168° South 310 357 10,000  Level New York Center
Sun 07:44:56 AM 40.8578 -75.6217 161° South 315 362 10,000  Level New York Center
Sun 07:45:56 AM 40.7739 -75.5828 161° South 322 371 10,000  Level New York Center
Sun 07:46:56 AM 40.7006 -75.5450 159° South 317 365 10,000  Level New York Center
Sun 07:47:54 AM 40.6164 -75.5089 162° South 317 365 10,000  Level New York Center
Sun 07:48:55 AM 40.5347 -75.4706 160° South 317 365 10,000  Level New York Center
Sun 07:49:56 AM 40.4569 -75.4325 160° South 317 365 10,000 -595 Level New York Center
Sun 07:50:56 AM 40.3836 -75.3922 157° South 301 346 8,800 -1,576 Descending New York Center
Sun 07:51:54 AM 40.3042 -75.3458 156° South 280 322 6,900 -1,436 Descending New York Center
Sun 07:52:53 AM 40.2347 -75.3061 156° South 275 316 6,000 -446 Descending New York Center
Sun 07:53:55 AM 40.1672 -75.2717 159° South 275 316 6,000  Level New York Center
Sun 07:54:54 AM 40.1042 -75.2350 156° South 256 295 6,000  Level New York Center
Sun 07:55:55 AM 40.0531 -75.2047 156° South 239 275 6,000  Level New York Center
Sun 07:56:56 AM 40.0308 -75.1300 111° Southeast 197 227 6,000 -727 Level New York Center
Sun 07:58:07 AM 40.0167 -75.0500 103° East 191 220 4,400 -1,344 Descending Philadelphia TRACON
Sun 07:59:01 AM 40.0000 -74.9833 108° East 179 206 3,200 -1,211 Descending Philadelphia TRACON
Sun 08:00:01 AM 39.9500 -74.9833 180° South 163 188 2,100 -550 Descending Philadelphia TRACON
Sun 08:01:01 AM 39.9167 -75.0167 217° Southwest 165 190 2,100  Level Philadelphia TRACON
Sun 08:02:07 AM 39.9000 -75.0833 252° West 170 196 2,100  Level Philadelphia TRACON

Login

Don't have an account? Register now (free) for customized features, flight alerts, and more!